createdAt,value
2023-04-24T00:02:59.443Z,0.80
2023-04-24T00:06:24.591Z,0.80
2023-04-24T00:09:48.446Z,0.70
2023-04-24T00:13:13.409Z,0.70
2023-04-24T00:16:37.342Z,0.80
2023-04-24T00:20:01.993Z,0.73
2023-04-24T00:23:25.960Z,0.63
2023-04-24T00:26:49.888Z,0.70
2023-04-24T00:30:15.461Z,0.80
2023-04-24T00:33:39.437Z,0.70
2023-04-24T00:37:03.287Z,0.70
2023-04-24T00:40:27.277Z,0.70
2023-04-24T00:43:51.229Z,0.70
2023-04-24T00:47:17.504Z,0.70
2023-04-24T00:50:41.696Z,0.60
2023-04-24T00:54:05.594Z,0.80
2023-04-24T00:57:29.523Z,0.73
2023-04-24T01:00:55.008Z,0.80
2023-04-24T01:04:21.425Z,0.70
2023-04-24T01:07:49.820Z,0.80
2023-04-24T01:11:14.238Z,0.70
2023-04-24T01:14:38.289Z,0.70
2023-04-24T01:18:02.354Z,0.70
2023-04-24T01:21:29.720Z,0.80
2023-04-24T01:24:56.157Z,0.73
2023-04-24T01:28:20.513Z,0.70
2023-04-24T01:31:44.731Z,0.80
2023-04-24T01:35:09.912Z,0.67
2023-04-24T01:38:33.700Z,0.60
2023-04-24T01:41:59.035Z,0.80
2023-04-24T01:45:22.858Z,0.80
2023-04-24T01:48:48.135Z,0.63
2023-04-24T01:52:11.974Z,0.80
2023-04-24T01:55:36.156Z,0.80
2023-04-24T01:59:04.436Z,0.70
2023-04-24T02:02:29.925Z,0.70
2023-04-24T02:05:54.809Z,0.70
2023-04-24T02:09:18.711Z,0.60
2023-04-24T02:12:42.696Z,0.67
2023-04-24T02:16:08.000Z,0.90
2023-04-24T02:19:31.991Z,0.80
2023-04-24T02:22:56.059Z,0.77
2023-04-24T02:26:19.860Z,0.70
2023-04-24T02:29:43.933Z,0.63
2023-04-24T02:33:09.317Z,0.67
2023-04-24T02:36:33.546Z,0.70
2023-04-24T02:39:57.305Z,0.63
2023-04-24T02:43:21.184Z,0.70
2023-04-24T02:46:45.523Z,0.70
2023-04-24T02:50:12.376Z,0.70
2023-04-24T02:53:36.155Z,0.70
2023-04-24T02:57:00.148Z,0.70
2023-04-24T03:00:24.245Z,0.60
2023-04-24T03:03:48.151Z,0.70
2023-04-24T03:07:13.651Z,0.70
2023-04-24T03:10:37.473Z,0.67
2023-04-24T03:14:01.341Z,0.77
2023-04-24T03:17:24.946Z,0.60
2023-04-24T03:20:49.240Z,0.70
2023-04-24T03:24:14.377Z,0.77
2023-04-24T03:27:40.148Z,0.73
2023-04-24T03:31:12.891Z,0.60
2023-04-24T03:34:36.833Z,0.80
2023-04-24T03:38:01.133Z,0.60
2023-04-24T03:41:37.799Z,0.60
2023-04-24T03:45:13.024Z,0.70
2023-04-24T03:48:40.028Z,0.80
2023-04-24T03:52:05.534Z,0.60
2023-04-24T03:55:29.356Z,0.60
2023-04-24T03:58:54.597Z,1.10
2023-04-24T04:02:18.998Z,0.67
2023-04-24T04:05:43.031Z,0.70
2023-04-24T04:09:08.030Z,0.70
2023-04-24T04:12:32.943Z,0.63
2023-04-24T04:15:58.256Z,0.73
2023-04-24T04:19:22.365Z,0.70
2023-04-24T04:22:47.019Z,0.60
2023-04-24T04:26:15.994Z,0.60
2023-04-24T04:30:01.480Z,0.80
2023-04-24T04:33:29.806Z,0.70
2023-04-24T04:36:54.181Z,0.83
2023-04-24T04:40:29.530Z,0.80
2023-04-24T04:43:59.938Z,0.80
2023-04-24T04:47:24.563Z,0.60
2023-04-24T04:50:51.951Z,0.90
2023-04-24T04:54:17.782Z,0.83
2023-04-24T04:57:41.707Z,0.90
2023-04-24T05:01:05.991Z,0.80
2023-04-24T05:04:35.397Z,0.90
2023-04-24T05:08:01.022Z,0.90
2023-04-24T05:11:25.062Z,1.00
2023-04-24T05:14:49.642Z,0.97
2023-04-24T05:18:14.159Z,0.90
2023-04-24T05:21:38.214Z,0.90
2023-04-24T05:25:03.694Z,1.10
2023-04-24T05:28:50.049Z,1.10
2023-04-24T05:32:14.514Z,1.00
2023-04-24T05:35:38.410Z,0.90
2023-04-24T05:39:02.185Z,1.00
2023-04-24T05:42:27.041Z,1.13
2023-04-24T05:45:51.065Z,1.00
2023-04-24T05:49:15.838Z,1.00
2023-04-24T05:52:40.715Z,0.80
2023-04-24T05:56:18.341Z,1.03
2023-04-24T05:59:43.855Z,1.00
2023-04-24T06:03:08.831Z,0.80
2023-04-24T06:06:33.580Z,0.90
2023-04-24T06:09:57.614Z,0.87
2023-04-24T06:13:21.919Z,1.17
2023-04-24T06:17:07.087Z,1.07
2023-04-24T06:20:38.795Z,0.90
2023-04-24T06:24:03.475Z,0.80
2023-04-24T06:27:28.741Z,1.07
2023-04-24T06:30:52.617Z,1.10
2023-04-24T06:34:17.523Z,1.20
2023-04-24T06:37:42.249Z,1.00
2023-04-24T06:41:06.657Z,1.10
2023-04-24T06:44:30.503Z,1.00
2023-04-24T06:47:54.468Z,0.90
2023-04-24T06:51:20.827Z,1.00
2023-04-24T06:54:44.651Z,1.00
2023-04-24T06:58:09.028Z,1.13
2023-04-24T07:01:32.865Z,0.93
2023-04-24T07:04:56.605Z,1.10
2023-04-24T07:08:23.015Z,1.10
2023-04-24T07:11:46.935Z,1.00
2023-04-24T07:15:12.594Z,1.40
2023-04-24T07:18:37.459Z,1.03
2023-04-24T07:22:01.230Z,0.97
2023-04-24T07:25:26.442Z,1.20
2023-04-24T07:28:50.453Z,1.30
2023-04-24T07:32:14.406Z,1.13
2023-04-24T07:35:38.378Z,1.30
2023-04-24T07:39:02.250Z,1.20
2023-04-24T07:42:27.480Z,1.13
2023-04-24T07:45:51.702Z,1.10
2023-04-24T07:49:16.994Z,1.30
2023-04-24T07:52:42.313Z,1.37
2023-04-24T07:56:07.584Z,1.07
2023-04-24T07:59:32.869Z,1.43
2023-04-24T08:02:56.732Z,1.77
2023-04-24T08:06:20.732Z,1.27
2023-04-24T08:09:44.665Z,1.40
2023-04-24T08:13:08.699Z,1.37
2023-04-24T08:16:35.270Z,1.40
2023-04-24T08:20:02.405Z,1.30
2023-04-24T08:23:26.583Z,1.20
2023-04-24T08:26:51.246Z,1.37
2023-04-24T08:30:15.676Z,1.00
2023-04-24T08:33:41.949Z,1.10
2023-04-24T08:37:06.278Z,1.37
2023-04-24T08:40:31.817Z,1.20
2023-04-24T08:43:56.117Z,1.40
2023-04-24T08:47:22.482Z,1.10
2023-04-24T08:50:49.380Z,1.37
2023-04-24T08:54:13.662Z,1.43
2023-04-24T08:57:41.020Z,1.00
2023-04-24T09:01:05.322Z,1.30
2023-04-24T09:04:31.414Z,1.20
2023-04-24T09:07:58.777Z,1.17
2023-04-24T09:11:24.471Z,1.00
2023-04-24T09:14:48.150Z,1.20
2023-04-24T09:18:11.950Z,1.20
2023-04-24T09:21:37.462Z,1.70
2023-04-24T09:25:10.135Z,1.37
2023-04-24T09:28:36.771Z,1.40
2023-04-24T09:32:00.785Z,1.40
2023-04-24T09:35:24.992Z,1.50
2023-04-24T09:38:48.770Z,1.00
2023-04-24T09:42:13.945Z,1.00
2023-04-24T09:45:39.377Z,1.10
2023-04-24T09:49:11.840Z,1.20
2023-04-24T09:52:35.652Z,1.10
2023-04-24T09:56:04.265Z,1.50
2023-04-24T09:59:30.002Z,1.43
2023-04-24T10:02:58.138Z,1.10
2023-04-24T10:06:22.131Z,1.30
2023-04-24T10:09:45.988Z,1.27
2023-04-24T10:13:11.834Z,1.23
2023-04-24T10:16:37.113Z,1.10
2023-04-24T10:20:02.661Z,1.30
2023-04-24T10:23:27.923Z,1.10
2023-04-24T10:26:51.764Z,1.20
2023-04-24T10:30:16.718Z,1.17
2023-04-24T10:33:43.333Z,1.20
2023-04-24T10:37:07.283Z,1.20
2023-04-24T10:40:33.720Z,1.20
2023-04-24T10:44:11.293Z,1.10
2023-04-24T10:47:43.228Z,1.20
2023-04-24T10:51:12.871Z,1.10
2023-04-24T10:54:38.625Z,1.83
2023-04-24T10:58:06.070Z,1.23
2023-04-24T11:01:31.746Z,1.20
2023-04-24T11:04:56.108Z,0.80
2023-04-24T11:08:28.438Z,1.10
2023-04-24T11:11:52.259Z,0.90
2023-04-24T11:15:20.576Z,0.93
2023-04-24T11:18:51.139Z,1.00
2023-04-24T11:22:18.923Z,1.10
2023-04-24T11:25:44.724Z,1.10
2023-04-24T11:29:09.694Z,0.90
2023-04-24T11:32:37.092Z,1.00
2023-04-24T11:36:01.023Z,1.10
2023-04-24T11:39:25.001Z,1.30
2023-04-24T11:42:51.401Z,0.90
2023-04-24T11:46:18.706Z,1.20
2023-04-24T11:49:42.602Z,1.10
2023-04-24T11:53:06.591Z,1.03
2023-04-24T11:56:30.697Z,1.07
2023-04-24T11:59:56.795Z,1.20
2023-04-24T12:03:21.543Z,1.00
2023-04-24T12:07:03.125Z,1.30
2023-04-24T12:10:28.970Z,1.00
2023-04-24T12:13:52.856Z,1.20
2023-04-24T12:17:17.795Z,1.13
2023-04-24T12:20:42.259Z,1.37
2023-04-24T12:24:09.296Z,1.17
2023-04-24T12:27:34.777Z,1.00
2023-04-24T12:30:58.624Z,1.20
2023-04-24T12:34:25.897Z,1.23
2023-04-24T12:37:50.607Z,1.20
2023-04-24T12:41:15.867Z,1.40
2023-04-24T12:44:39.336Z,1.17
2023-04-24T12:48:03.286Z,1.17
2023-04-24T12:51:28.853Z,1.40
2023-04-24T12:54:54.422Z,1.30
2023-04-24T12:58:18.459Z,1.10
2023-04-24T13:01:43.120Z,1.10
2023-04-24T13:05:07.889Z,1.30
2023-04-24T13:08:32.853Z,1.00
2023-04-24T13:11:57.375Z,0.90
2023-04-24T13:15:21.326Z,0.90
2023-04-24T13:18:45.121Z,1.07
2023-04-24T13:22:09.204Z,1.07
2023-04-24T13:25:39.975Z,1.00
2023-04-24T13:29:04.305Z,1.00
2023-04-24T13:32:29.803Z,1.10
2023-04-24T13:35:53.736Z,1.10
2023-04-24T13:39:17.887Z,1.00
2023-04-24T13:42:42.811Z,1.00
2023-04-24T13:46:06.529Z,1.17
2023-04-24T13:49:30.497Z,1.10
2023-04-24T13:52:55.138Z,1.00
2023-04-24T13:56:18.955Z,1.20
2023-04-24T13:59:44.192Z,1.30
2023-04-24T14:03:07.844Z,1.00
2023-04-24T14:06:32.150Z,1.00
2023-04-24T14:09:55.904Z,0.90
2023-04-24T14:13:20.121Z,0.93
2023-04-24T14:16:45.335Z,1.00
2023-04-24T14:20:10.153Z,0.90
2023-04-24T14:23:34.214Z,1.00
2023-04-24T14:26:58.189Z,1.00
2023-04-24T14:30:22.161Z,1.10
2023-04-24T14:33:47.221Z,1.20
2023-04-24T14:37:11.264Z,0.97
2023-04-24T14:44:02.027Z,1.00
2023-04-24T14:47:25.952Z,0.90
2023-04-24T14:50:51.034Z,0.80
2023-04-24T14:54:15.216Z,1.10
2023-04-24T14:57:38.855Z,1.03
2023-04-24T15:01:02.791Z,1.27
2023-04-24T15:04:27.359Z,1.33
2023-04-24T15:07:52.792Z,1.17
2023-04-24T15:11:16.683Z,1.10
2023-04-24T15:14:40.565Z,1.40
2023-04-24T15:18:04.587Z,1.47
2023-04-24T15:21:28.136Z,1.30
2023-04-24T15:24:53.358Z,1.20
2023-04-24T15:28:17.126Z,2.73
2023-04-24T15:31:41.468Z,1.57
2023-04-24T15:35:09.122Z,1.13
2023-04-24T15:38:34.112Z,1.40
2023-04-24T15:41:59.022Z,1.43
2023-04-24T15:45:22.953Z,1.30
2023-04-24T15:48:46.963Z,1.17
2023-04-24T15:52:11.770Z,1.00
2023-04-24T15:55:37.235Z,1.10
2023-04-24T15:59:03.066Z,1.23
2023-04-24T16:02:27.160Z,1.10
2023-04-24T16:05:51.187Z,0.80
2023-04-24T16:09:15.342Z,0.80
2023-04-24T16:12:39.327Z,0.90
2023-04-24T16:16:04.935Z,0.90
2023-04-24T16:19:28.903Z,1.23
2023-04-24T16:22:52.770Z,1.20
2023-04-24T16:26:16.664Z,1.00
2023-04-24T16:29:40.817Z,2.03
2023-04-24T16:33:08.949Z,1.63
2023-04-24T16:36:32.810Z,1.37
2023-04-24T16:39:56.816Z,1.17
2023-04-24T16:43:20.883Z,1.20
2023-04-24T16:46:44.872Z,1.13
2023-04-24T16:50:11.333Z,1.20
2023-04-24T16:53:35.245Z,1.13
2023-04-24T16:56:59.456Z,1.10
2023-04-24T17:00:23.895Z,1.20
2023-04-24T17:03:48.077Z,0.90
2023-04-24T17:07:13.746Z,1.27
2023-04-24T17:10:37.575Z,1.37
2023-04-24T17:14:01.548Z,1.20
2023-04-24T17:17:25.551Z,1.10
2023-04-24T17:20:51.275Z,1.20
2023-04-24T17:24:16.612Z,1.10
2023-04-24T17:27:40.192Z,1.03
2023-04-24T17:31:04.034Z,1.10
2023-04-24T17:34:27.790Z,1.30
2023-04-24T17:37:51.718Z,1.20
2023-04-24T17:41:17.037Z,1.10
2023-04-24T17:44:40.841Z,1.37
2023-04-24T17:48:04.811Z,1.30
2023-04-24T17:51:29.131Z,1.30
2023-04-24T17:54:52.973Z,1.23
2023-04-24T17:58:18.932Z,1.10
2023-04-24T18:01:42.913Z,0.90
2023-04-24T18:05:06.751Z,0.90
2023-04-24T18:08:30.205Z,1.00
2023-04-24T18:11:54.324Z,1.07
2023-04-24T18:15:19.534Z,1.10
2023-04-24T18:18:43.284Z,0.90
2023-04-24T18:22:07.066Z,0.90
2023-04-24T18:25:31.152Z,0.90
2023-04-24T18:28:55.034Z,1.10
2023-04-24T18:32:20.244Z,0.90
2023-04-24T18:35:44.213Z,0.90
2023-04-24T18:39:08.169Z,0.83
2023-04-24T18:42:32.260Z,1.00
2023-04-24T18:45:56.546Z,0.97
2023-04-24T18:49:21.948Z,0.93
2023-04-24T18:52:46.290Z,1.00
2023-04-24T18:56:10.829Z,1.07
2023-04-24T18:59:34.881Z,0.90
2023-04-24T19:02:59.107Z,1.20
2023-04-24T19:06:24.846Z,0.87
2023-04-24T19:09:48.930Z,0.90
2023-04-24T19:13:13.071Z,1.10
2023-04-24T19:16:37.061Z,0.80
2023-04-24T19:20:01.060Z,1.07
2023-04-24T19:23:27.167Z,0.93
2023-04-24T19:26:50.826Z,1.00
2023-04-24T19:30:15.451Z,0.80
2023-04-24T19:33:39.331Z,0.90
2023-04-24T19:37:03.456Z,0.97
2023-04-24T19:40:29.165Z,0.93
2023-04-24T19:43:53.779Z,1.00
2023-04-24T19:47:17.650Z,0.80
2023-04-24T19:50:42.792Z,1.10
2023-04-24T19:54:07.996Z,0.80
2023-04-24T19:57:33.362Z,1.03
2023-04-24T20:00:57.733Z,0.90
2023-04-24T20:04:23.375Z,0.90
2023-04-24T20:07:47.409Z,0.90
2023-04-24T20:11:11.751Z,0.77
2023-04-24T20:14:36.625Z,0.80
2023-04-24T20:18:00.493Z,0.80
2023-04-24T20:21:24.305Z,0.90
2023-04-24T20:24:48.373Z,0.90
2023-04-24T20:28:12.095Z,0.90
2023-04-24T20:31:37.004Z,1.00
2023-04-24T20:35:00.854Z,0.90
2023-04-24T20:38:25.590Z,0.80
2023-04-24T20:41:49.732Z,0.93
2023-04-24T20:45:13.758Z,0.90
2023-04-24T20:48:39.300Z,1.10
2023-04-24T20:52:03.084Z,1.00
2023-04-24T20:55:27.059Z,1.20
2023-04-24T20:58:51.985Z,1.20
2023-04-24T21:02:16.597Z,1.00
2023-04-24T21:05:41.907Z,1.20
2023-04-24T21:09:05.730Z,1.00
2023-04-24T21:12:29.090Z,0.90
2023-04-24T21:15:52.972Z,0.80
2023-04-24T21:19:17.115Z,1.00
2023-04-24T21:22:42.231Z,1.00
2023-04-24T21:26:06.580Z,1.20
2023-04-24T21:29:30.269Z,1.00
2023-04-24T21:32:53.800Z,1.00
2023-04-24T21:36:17.555Z,1.10
2023-04-24T21:39:42.645Z,1.10
2023-04-24T21:43:06.222Z,1.00
2023-04-24T21:46:30.041Z,0.77
2023-04-24T21:49:53.816Z,0.80
2023-04-24T21:53:17.593Z,0.80
2023-04-24T21:56:42.491Z,0.90
2023-04-24T22:00:08.425Z,1.00
2023-04-24T22:03:32.422Z,1.10
2023-04-24T22:06:56.592Z,1.10
2023-04-24T22:10:20.475Z,1.00
2023-04-24T22:13:46.679Z,1.20
2023-04-24T22:17:10.559Z,1.13
2023-04-24T22:20:34.531Z,1.10
2023-04-24T22:23:58.388Z,0.90
2023-04-24T22:27:21.789Z,1.00
2023-04-24T22:30:47.202Z,0.90
2023-04-24T22:34:11.240Z,1.10
2023-04-24T22:37:35.071Z,0.90
2023-04-24T22:40:58.889Z,1.23
2023-04-24T22:44:23.044Z,1.13
2023-04-24T22:47:48.168Z,0.90
2023-04-24T22:51:12.085Z,1.10
2023-04-24T22:54:35.902Z,0.90
2023-04-24T22:57:59.761Z,1.00
2023-04-24T23:01:23.723Z,1.40
2023-04-24T23:04:49.183Z,1.00
2023-04-24T23:08:12.930Z,0.90
2023-04-24T23:11:36.992Z,0.90
2023-04-24T23:15:01.421Z,0.90
2023-04-24T23:18:25.406Z,0.90
2023-04-24T23:21:51.471Z,1.10
2023-04-24T23:25:15.823Z,0.97
2023-04-24T23:28:40.790Z,1.10
2023-04-24T23:32:04.612Z,1.20
2023-04-24T23:35:28.408Z,0.90
2023-04-24T23:38:53.507Z,1.20
2023-04-24T23:42:17.420Z,1.30
2023-04-24T23:45:41.207Z,1.40
2023-04-24T23:49:05.401Z,1.03
2023-04-24T23:52:28.993Z,1.00
2023-04-24T23:55:54.129Z,1.10
2023-04-24T23:59:20.585Z,1.10
